createdAt,value
2022-08-17T00:00:43.726Z,100383.22
2022-08-17T00:03:28.195Z,100387.47
2022-08-17T00:06:00.761Z,100381.53
2022-08-17T00:08:33.320Z,100383.59
2022-08-17T00:11:02.756Z,100389.50
2022-08-17T00:13:35.832Z,100390.97
2022-08-17T00:16:10.956Z,100383.97
2022-08-17T00:19:08.003Z,100389.03
2022-08-17T00:22:29.497Z,100387.16
2022-08-17T00:24:17.956Z,100383.72
2022-08-17T00:26:46.335Z,100383.09
2022-08-17T00:29:19.401Z,100387.53
2022-08-17T00:31:49.245Z,100391.69
2022-08-17T00:34:17.795Z,100395.63
2022-08-17T00:36:46.200Z,100396.63
2022-08-17T00:39:14.435Z,100397.41
2022-08-17T00:41:45.763Z,100400.47
2022-08-17T00:44:14.282Z,100399.38
2022-08-17T00:46:44.687Z,100404.97
2022-08-17T00:49:14.180Z,100399.16
2022-08-17T00:51:57.270Z,100391.03
2022-08-17T00:54:41.993Z,100396.44
2022-08-17T00:57:17.326Z,100395.13
2022-08-17T01:00:03.756Z,100392.31
2022-08-17T01:02:41.458Z,100398.34
2022-08-17T01:05:16.016Z,100399.31
2022-08-17T01:07:49.089Z,100400.50
2022-08-17T01:10:58.301Z,100405.63
2022-08-17T01:13:10.121Z,100401.03
2022-08-17T01:15:42.407Z,100400.03
2022-08-17T01:18:15.946Z,100401.09
2022-08-17T01:20:50.592Z,100401.19
2022-08-17T01:23:22.030Z,100397.53
2022-08-17T01:25:56.275Z,100396.19
2022-08-17T01:28:52.490Z,100396.38
2022-08-17T01:31:14.690Z,100389.97
2022-08-17T01:33:43.070Z,100394.13
2022-08-17T01:36:11.662Z,100400.66
2022-08-17T01:38:41.234Z,100395.53
2022-08-17T01:41:17.475Z,100395.06
2022-08-17T01:44:02.834Z,100389.50
2022-08-17T01:46:34.894Z,100399.66
2022-08-17T01:49:06.424Z,100393.81
2022-08-17T01:51:35.409Z,100395.78
2022-08-17T01:54:07.478Z,100403.22
2022-08-17T01:56:39.715Z,100404.31
2022-08-17T01:59:07.967Z,100412.28
2022-08-17T02:01:37.924Z,100406.22
2022-08-17T02:04:08.931Z,100412.63
2022-08-17T02:06:45.268Z,100412.38
2022-08-17T02:09:23.321Z,100418.63
2022-08-17T02:11:56.325Z,100419.69
2022-08-17T02:14:25.994Z,100422.97
2022-08-17T02:16:55.035Z,100427.69
2022-08-17T02:19:23.897Z,100428.59
2022-08-17T02:21:54.549Z,100422.34
2022-08-17T02:24:59.536Z,100427.66
2022-08-17T02:27:17.965Z,100439.78
2022-08-17T02:29:46.255Z,100446.28
2022-08-17T02:32:27.437Z,100440.00
2022-08-17T02:35:00.050Z,100449.22
2022-08-17T02:37:30.567Z,100456.19
2022-08-17T02:40:00.343Z,100452.94
2022-08-17T02:42:35.507Z,100458.41
2022-08-17T02:45:06.190Z,100462.50
2022-08-17T02:47:35.532Z,100472.53
2022-08-17T02:50:04.181Z,100474.22
2022-08-17T02:52:43.079Z,100471.31
2022-08-17T02:55:19.590Z,100471.63
2022-08-17T02:57:48.780Z,100479.28
2022-08-17T03:00:23.277Z,100478.94
2022-08-17T03:02:52.432Z,100483.69
2022-08-17T03:05:23.360Z,100482.66
2022-08-17T03:07:52.532Z,100485.34
2022-08-17T03:10:22.415Z,100489.06
2022-08-17T03:12:53.700Z,100489.84
2022-08-17T03:15:26.931Z,100495.13
2022-08-17T03:17:57.530Z,100500.22
2022-08-17T03:20:27.125Z,100499.66
2022-08-17T03:23:01.874Z,100500.97
2022-08-17T03:25:35.155Z,100508.22
2022-08-17T03:28:03.635Z,100505.63
2022-08-17T03:30:31.986Z,100501.00
2022-08-17T03:33:03.030Z,100509.66
2022-08-17T03:35:33.927Z,100511.28
2022-08-17T03:38:02.655Z,100511.94
2022-08-17T03:40:34.519Z,100516.16
2022-08-17T03:43:22.428Z,100520.50
2022-08-17T03:46:27.220Z,100520.13
2022-08-17T03:49:16.266Z,100520.34
2022-08-17T03:52:02.834Z,100526.66
2022-08-17T03:54:49.636Z,100536.06
2022-08-17T03:57:17.951Z,100535.50
2022-08-17T03:59:46.925Z,100540.56
2022-08-17T04:02:25.391Z,100551.56
2022-08-17T04:04:54.830Z,100550.19
2022-08-17T04:07:26.436Z,100556.75
2022-08-17T04:09:54.868Z,100554.22
2022-08-17T04:12:25.026Z,100555.34
2022-08-17T04:14:55.060Z,100562.66
2022-08-17T04:17:28.212Z,100561.94
2022-08-17T04:19:57.261Z,100572.53
2022-08-17T04:22:32.537Z,100573.16
2022-08-17T04:25:16.847Z,100576.31
2022-08-17T04:27:45.326Z,100582.03
2022-08-17T04:30:14.267Z,100596.63
2022-08-17T04:33:10.467Z,100587.06
2022-08-17T04:35:45.479Z,100592.44
2022-08-17T04:38:19.553Z,100590.03
2022-08-17T04:41:06.771Z,100595.66
2022-08-17T04:43:36.639Z,100604.25
2022-08-17T04:46:09.176Z,100604.50
2022-08-17T04:48:46.769Z,100606.50
2022-08-17T04:51:29.003Z,100608.78
2022-08-17T04:54:02.227Z,100618.53
2022-08-17T04:56:32.480Z,100617.38
2022-08-17T04:59:07.411Z,100613.97
2022-08-17T05:01:39.751Z,100625.97
2022-08-17T05:04:32.155Z,100625.97
2022-08-17T05:06:59.929Z,100621.00
2022-08-17T05:09:29.174Z,100630.25
2022-08-17T05:12:01.340Z,100637.25
2022-08-17T05:14:32.429Z,100650.53
2022-08-17T05:17:07.359Z,100657.41
2022-08-17T05:19:39.963Z,100648.25
2022-08-17T05:22:08.620Z,100661.63
2022-08-17T05:24:42.644Z,100649.50
2022-08-17T05:27:19.324Z,100649.34
2022-08-17T05:29:47.724Z,100651.63
2022-08-17T05:32:38.581Z,100647.50
2022-08-17T05:35:06.303Z,100652.19
2022-08-17T05:37:34.702Z,100653.59
2022-08-17T05:40:03.181Z,100655.88
2022-08-17T05:42:31.685Z,100653.72
2022-08-17T05:45:00.141Z,100655.97
2022-08-17T05:47:29.586Z,100665.41
2022-08-17T05:49:58.610Z,100657.78
2022-08-17T05:52:45.081Z,100656.34
2022-08-17T05:55:28.356Z,100656.50
2022-08-17T05:58:05.885Z,100649.59
2022-08-17T06:01:12.514Z,100652.47
2022-08-17T06:04:12.102Z,100658.13
2022-08-17T06:07:29.141Z,100649.47
2022-08-17T06:10:14.276Z,100651.28
2022-08-17T06:13:13.766Z,100655.72
2022-08-17T06:16:33.269Z,100656.59
2022-08-17T06:19:49.801Z,100661.41
2022-08-17T06:22:21.161Z,100658.97
2022-08-17T06:24:57.637Z,100666.78
2022-08-17T06:27:45.903Z,100664.22
2022-08-17T06:30:19.085Z,100663.78
2022-08-17T06:32:50.667Z,100661.31
2022-08-17T06:35:32.014Z,100659.88
2022-08-17T06:38:38.358Z,100655.00
2022-08-17T06:41:52.904Z,100660.22
2022-08-17T06:44:44.749Z,100658.31
2022-08-17T06:47:37.231Z,100662.41
2022-08-17T06:50:16.431Z,100662.81
2022-08-17T06:53:09.796Z,100671.53
2022-08-17T06:56:09.786Z,100666.53
2022-08-17T06:58:40.427Z,100665.94
2022-08-17T07:01:17.110Z,100660.94
2022-08-17T07:04:05.155Z,100659.19
2022-08-17T07:06:54.436Z,100671.41
2022-08-17T07:09:30.598Z,100671.31
2022-08-17T07:12:12.901Z,100671.97
2022-08-17T07:15:10.997Z,100684.91
2022-08-17T07:17:47.741Z,100683.44
2022-08-17T07:20:21.476Z,100686.53
2022-08-17T07:23:22.775Z,100685.91
2022-08-17T07:25:51.561Z,100692.56
2022-08-17T07:28:26.756Z,100689.97
2022-08-17T07:30:56.111Z,100696.63
2022-08-17T07:33:29.389Z,100697.97
2022-08-17T07:35:59.176Z,100694.53
2022-08-17T07:38:32.876Z,100698.59
2022-08-17T07:41:07.156Z,100691.59
2022-08-17T07:43:40.928Z,100692.97
2022-08-17T07:46:38.595Z,100695.78
2022-08-17T07:49:13.797Z,100696.91
2022-08-17T07:51:42.021Z,100695.06
2022-08-17T07:54:24.204Z,100703.16
2022-08-17T07:56:57.598Z,100699.75
2022-08-17T07:59:35.719Z,100709.78
2022-08-17T08:02:31.686Z,100705.63
2022-08-17T08:05:48.803Z,100709.53
2022-08-17T08:08:27.676Z,100717.66
2022-08-17T08:11:03.716Z,100712.53
2022-08-17T08:13:33.476Z,100714.72
2022-08-17T08:16:25.476Z,100714.97
2022-08-17T08:19:00.110Z,100716.31
2022-08-17T08:21:36.997Z,100715.22
2022-08-17T08:24:41.162Z,100722.97
2022-08-17T08:27:27.937Z,100722.47
2022-08-17T08:30:13.482Z,100724.53
2022-08-17T08:33:18.027Z,100717.50
2022-08-17T08:36:56.859Z,100728.66
2022-08-17T08:40:03.140Z,100731.84
2022-08-17T08:42:46.756Z,100718.56
2022-08-17T08:45:22.886Z,100733.19
2022-08-17T08:48:23.020Z,100729.13
2022-08-17T08:51:12.047Z,100732.78
2022-08-17T08:54:07.876Z,100724.81
2022-08-17T08:57:19.510Z,100734.03
2022-08-17T08:59:51.163Z,100731.56
2022-08-17T09:02:26.887Z,100728.22
2022-08-17T09:05:30.308Z,100725.88
2022-08-17T09:08:01.157Z,100726.38
2022-08-17T09:10:54.439Z,100713.38
2022-08-17T09:13:44.036Z,100717.50
2022-08-17T09:16:34.111Z,100715.28
2022-08-17T09:19:11.671Z,100718.19
2022-08-17T09:22:23.876Z,100718.31
2022-08-17T09:25:17.156Z,100718.44
2022-08-17T09:28:05.796Z,100720.59
2022-08-17T09:30:47.076Z,100727.41
2022-08-17T09:33:20.218Z,100725.28
2022-08-17T09:35:55.082Z,100722.06
2022-08-17T09:39:00.430Z,100729.31
2022-08-17T09:41:34.594Z,100717.03
2022-08-17T09:44:23.933Z,100728.06
2022-08-17T09:47:06.276Z,100727.41
2022-08-17T09:49:46.436Z,100722.38
2022-08-17T09:52:25.764Z,100732.50
2022-08-17T09:54:56.995Z,100731.88
2022-08-17T09:57:43.607Z,100734.81
2022-08-17T10:00:17.963Z,100731.25
2022-08-17T10:03:04.191Z,100745.59
2022-08-17T10:05:58.996Z,100750.19
2022-08-17T10:08:42.760Z,100749.69
2022-08-17T10:11:55.396Z,100760.69
2022-08-17T10:14:36.472Z,100755.41
2022-08-17T10:17:17.865Z,100762.75
2022-08-17T10:20:12.196Z,100764.59
2022-08-17T10:23:27.876Z,100774.38
2022-08-17T10:26:16.992Z,100779.88
2022-08-17T10:28:56.906Z,100775.13
2022-08-17T10:31:41.962Z,100777.59
2022-08-17T10:34:48.996Z,100776.63
2022-08-17T10:37:41.386Z,100778.25
2022-08-17T10:40:28.893Z,100777.06
2022-08-17T10:43:20.432Z,100774.97
2022-08-17T10:46:10.610Z,100763.25
2022-08-17T10:48:45.155Z,100759.69
2022-08-17T10:51:38.830Z,100753.41
2022-08-17T10:54:28.196Z,100743.53
2022-08-17T10:56:57.950Z,100734.69
2022-08-17T10:59:39.560Z,100735.53
2022-08-17T11:02:30.275Z,100734.81
2022-08-17T11:05:20.127Z,100741.06
2022-08-17T11:08:01.955Z,100737.63
2022-08-17T11:10:39.881Z,100754.66
2022-08-17T11:13:28.517Z,100758.28
2022-08-17T11:16:28.657Z,100741.06
2022-08-17T11:19:17.636Z,100726.94
2022-08-17T11:22:08.836Z,100742.88
2022-08-17T11:24:49.315Z,100723.03
2022-08-17T11:27:28.674Z,100720.34
2022-08-17T11:30:03.321Z,100739.94
2022-08-17T11:32:47.627Z,100749.88
2022-08-17T11:35:23.075Z,100772.28
2022-08-17T11:38:25.955Z,100783.94
2022-08-17T11:40:59.391Z,100785.66
2022-08-17T11:43:50.190Z,100732.84
2022-08-17T11:47:18.509Z,100739.75
2022-08-17T11:50:13.449Z,100761.22
2022-08-17T11:52:49.385Z,100702.69
2022-08-17T11:55:44.725Z,100676.41
2022-08-17T11:58:31.556Z,100660.22
2022-08-17T12:01:01.795Z,100664.75
2022-08-17T12:03:32.924Z,100662.69
2022-08-17T12:06:12.035Z,100719.88
2022-08-17T12:08:44.681Z,100705.34
2022-08-17T12:11:55.159Z,100681.09
2022-08-17T12:14:18.480Z,100723.09
2022-08-17T12:17:13.000Z,100764.16
2022-08-17T12:19:51.075Z,100738.50
2022-08-17T12:22:26.185Z,100775.03
2022-08-17T12:25:14.765Z,100727.38
2022-08-17T12:28:06.688Z,100751.50
2022-08-17T12:30:37.443Z,100760.31
2022-08-17T12:33:11.884Z,100765.50
2022-08-17T12:35:40.030Z,100765.28
2022-08-17T12:38:32.822Z,100755.56
2022-08-17T12:41:21.314Z,100768.31
2022-08-17T12:44:18.664Z,100777.34
2022-08-17T12:46:53.635Z,100770.03
2022-08-17T12:49:25.483Z,100766.47
2022-08-17T12:52:13.954Z,100773.47
2022-08-17T12:55:07.888Z,100793.09
2022-08-17T12:57:47.456Z,100789.41
2022-08-17T13:00:32.839Z,100790.16
2022-08-17T13:03:02.914Z,100786.59
2022-08-17T13:05:40.345Z,100805.25
2022-08-17T13:08:17.707Z,100825.84
2022-08-17T13:10:56.793Z,100824.97
2022-08-17T13:13:28.924Z,100832.34
2022-08-17T13:16:01.794Z,100825.19
2022-08-17T13:18:47.880Z,100820.06
2022-08-17T13:21:27.716Z,100832.16
2022-08-17T13:24:03.633Z,100843.28
2022-08-17T13:26:37.224Z,100860.50
2022-08-17T13:29:09.549Z,100863.41
2022-08-17T13:31:51.829Z,100860.63
2022-08-17T13:34:29.778Z,100859.84
2022-08-17T13:37:29.715Z,100865.25
2022-08-17T13:40:20.835Z,100868.41
2022-08-17T13:42:53.992Z,100878.44
2022-08-17T13:45:36.753Z,100877.59
2022-08-17T13:48:11.139Z,100871.41
2022-08-17T13:51:04.995Z,100883.38
2022-08-17T13:53:37.794Z,100883.50
2022-08-17T13:56:33.521Z,100878.13
2022-08-17T13:59:07.665Z,100881.78
2022-08-17T14:01:53.398Z,100888.47
2022-08-17T14:04:33.797Z,100880.94
2022-08-17T14:07:28.266Z,100887.50
2022-08-17T14:10:19.159Z,100886.66
2022-08-17T14:12:47.714Z,100875.88
2022-08-17T14:15:19.070Z,100880.28
2022-08-17T14:17:49.930Z,100887.28
2022-08-17T14:20:21.921Z,100894.41
2022-08-17T14:22:56.676Z,100894.41
2022-08-17T14:25:29.325Z,100892.56
2022-08-17T14:27:58.128Z,100896.78
2022-08-17T14:30:29.934Z,100896.44
2022-08-17T14:33:00.515Z,100898.91
2022-08-17T14:35:30.111Z,100912.28
2022-08-17T14:37:58.720Z,100913.78
2022-08-17T14:40:27.077Z,100918.00
2022-08-17T14:42:57.635Z,100924.78
2022-08-17T14:45:29.572Z,100926.16
2022-08-17T14:48:04.995Z,100933.81
2022-08-17T14:50:35.803Z,100938.00
2022-08-17T14:53:06.677Z,100927.97
2022-08-17T14:55:36.680Z,100924.72
2022-08-17T14:58:04.959Z,100918.91
2022-08-17T15:00:34.210Z,100926.47
2022-08-17T15:03:03.715Z,100922.69
2022-08-17T15:05:35.754Z,100926.00
2022-08-17T15:08:05.449Z,100935.91
2022-08-17T15:10:35.057Z,100942.13
2022-08-17T15:13:03.525Z,100943.03
2022-08-17T15:15:32.417Z,100936.94
2022-08-17T15:18:00.764Z,100944.34
2022-08-17T15:20:30.834Z,100945.09
2022-08-17T15:22:59.795Z,100960.38
2022-08-17T15:25:31.246Z,100963.25
2022-08-17T15:27:59.942Z,100957.00
2022-08-17T15:30:28.614Z,100957.66
2022-08-17T15:32:59.476Z,100954.50
2022-08-17T15:35:32.950Z,100953.28
2022-08-17T15:38:11.597Z,100955.13
2022-08-17T15:40:45.079Z,100951.09
2022-08-17T15:43:27.833Z,100955.50
2022-08-17T15:46:11.391Z,100957.03
2022-08-17T15:48:42.758Z,100961.63
2022-08-17T15:51:13.760Z,100953.28
2022-08-17T15:53:44.121Z,100947.38
2022-08-17T15:56:14.510Z,100948.16
2022-08-17T15:58:44.841Z,100959.59
2022-08-17T16:01:18.450Z,100959.59
2022-08-17T16:04:04.611Z,100948.06
2022-08-17T16:06:36.033Z,100926.31
2022-08-17T16:09:04.676Z,100919.78
2022-08-17T16:11:32.880Z,100909.25
2022-08-17T16:14:01.237Z,100913.41
2022-08-17T16:16:32.271Z,100911.91
2022-08-17T16:19:00.682Z,100903.44
2022-08-17T16:21:42.647Z,100890.78
2022-08-17T16:24:13.287Z,100886.59
2022-08-17T16:26:42.122Z,100876.28
2022-08-17T16:29:11.232Z,100867.31
2022-08-17T16:31:40.296Z,100862.91
2022-08-17T16:34:17.006Z,100877.63
2022-08-17T16:36:54.658Z,100890.56
2022-08-17T16:39:25.948Z,100885.91
2022-08-17T16:41:54.928Z,100884.22
2022-08-17T16:44:23.331Z,100884.72
2022-08-17T16:46:51.582Z,100888.13
2022-08-17T16:49:36.088Z,100889.09
2022-08-17T16:52:11.014Z,100903.41
2022-08-17T16:54:44.450Z,100902.91
2022-08-17T16:57:14.302Z,100884.50
2022-08-17T16:59:47.492Z,100882.88
2022-08-17T17:02:17.971Z,100888.63
2022-08-17T17:05:04.042Z,100896.94
2022-08-17T17:07:35.272Z,100888.81
2022-08-17T17:10:11.247Z,100909.41
2022-08-17T17:13:01.629Z,100926.97
2022-08-17T17:15:55.226Z,100940.03
2022-08-17T17:18:33.476Z,100936.81
2022-08-17T17:21:02.332Z,100922.06
2022-08-17T17:23:47.465Z,100931.91
2022-08-17T17:27:01.475Z,100950.53
2022-08-17T17:30:03.533Z,100948.25
2022-08-17T17:33:00.924Z,100945.63
2022-08-17T17:35:57.963Z,100943.25
2022-08-17T17:38:30.231Z,100947.28
2022-08-17T17:41:05.391Z,100941.91
2022-08-17T17:43:41.361Z,100961.28
2022-08-17T17:46:29.253Z,100952.44
2022-08-17T17:48:59.125Z,100950.31
2022-08-17T17:52:07.158Z,100947.28
2022-08-17T17:55:13.885Z,100942.41
2022-08-17T17:57:56.601Z,100940.53
2022-08-17T18:00:26.185Z,100938.41
2022-08-17T18:03:12.327Z,100932.56
2022-08-17T18:06:01.481Z,100938.63
2022-08-17T18:08:35.066Z,100947.19
2022-08-17T18:11:26.025Z,100951.06
2022-08-17T18:14:05.992Z,100972.22
2022-08-17T18:16:35.932Z,100965.38
2022-08-17T18:19:04.353Z,100955.81
2022-08-17T18:21:44.801Z,100969.47
2022-08-17T18:24:14.126Z,100966.63
2022-08-17T18:26:56.500Z,100955.34
2022-08-17T18:29:25.165Z,100959.38
2022-08-17T18:32:24.433Z,100956.91
2022-08-17T18:35:02.902Z,100960.94
2022-08-17T18:37:52.990Z,100945.47
2022-08-17T18:40:21.243Z,100947.19
2022-08-17T18:43:06.238Z,100939.34
2022-08-17T18:45:41.967Z,100935.91
2022-08-17T18:48:36.909Z,100948.75
2022-08-17T18:51:40.452Z,100949.00
2022-08-17T18:54:22.766Z,100954.16
2022-08-17T18:56:57.824Z,100952.44
2022-08-17T18:59:32.280Z,100956.09
2022-08-17T19:02:22.381Z,100963.53
2022-08-17T19:05:08.768Z,100950.56
2022-08-17T19:07:43.558Z,100955.72
2022-08-17T19:10:46.084Z,100951.53
2022-08-17T19:13:24.321Z,100946.41
2022-08-17T19:16:05.316Z,100937.34
2022-08-17T19:18:51.796Z,100931.66
2022-08-17T19:21:26.450Z,100934.84
2022-08-17T19:24:06.270Z,100936.16
2022-08-17T19:26:54.503Z,100933.00
2022-08-17T19:29:52.096Z,100912.75
2022-08-17T19:32:25.806Z,100917.22
2022-08-17T19:34:54.667Z,100920.97
2022-08-17T19:37:37.334Z,100921.53
2022-08-17T19:41:00.930Z,100923.94
2022-08-17T19:43:39.722Z,100923.59
2022-08-17T19:46:28.662Z,100931.38
2022-08-17T19:49:04.285Z,100935.03
2022-08-17T19:51:59.851Z,100930.75
2022-08-17T19:54:38.995Z,100929.16
2022-08-17T19:57:25.876Z,100922.03
2022-08-17T20:00:00.755Z,100917.22
2022-08-17T20:03:05.840Z,100905.66
2022-08-17T20:06:12.990Z,100909.84
2022-08-17T20:09:14.841Z,100887.59
2022-08-17T20:12:15.677Z,100897.84
2022-08-17T20:14:55.461Z,100904.31
2022-08-17T20:17:33.644Z,100913.41
2022-08-17T20:20:31.785Z,100943.16
2022-08-17T20:23:02.916Z,100964.53
2022-08-17T20:26:06.355Z,100930.09
2022-08-17T20:28:36.685Z,100932.72
2022-08-17T20:31:59.915Z,100951.19
2022-08-17T20:34:34.944Z,100936.97
2022-08-17T20:37:11.236Z,100913.03
2022-08-17T20:39:44.387Z,100915.22
2022-08-17T20:42:21.717Z,100916.22
2022-08-17T20:44:53.557Z,100914.59
2022-08-17T20:47:33.555Z,100920.22
2022-08-17T20:50:33.645Z,100912.03
2022-08-17T20:53:14.951Z,100914.03
2022-08-17T20:55:52.549Z,100924.16
2022-08-17T20:58:24.108Z,100930.38
2022-08-17T21:00:59.666Z,100946.00
2022-08-17T21:03:50.460Z,100943.63
2022-08-17T21:06:25.120Z,100944.78
2022-08-17T21:09:11.557Z,100945.19
2022-08-17T21:11:56.728Z,100949.31
2022-08-17T21:14:58.847Z,100952.00
2022-08-17T21:17:57.157Z,100954.28
2022-08-17T21:20:47.948Z,100951.41
2022-08-17T21:23:28.197Z,100953.44
2022-08-17T21:26:13.551Z,100947.91
2022-08-17T21:29:01.039Z,100953.59
2022-08-17T21:31:44.081Z,100959.88
2022-08-17T21:34:17.236Z,100948.91
2022-08-17T21:36:49.795Z,100939.75
2022-08-17T21:39:33.258Z,100934.66
2022-08-17T21:42:02.596Z,100933.78
2022-08-17T21:44:43.045Z,100939.88
2022-08-17T21:47:26.534Z,100941.69
2022-08-17T21:49:56.930Z,100950.41
2022-08-17T21:52:28.040Z,100945.22
2022-08-17T21:55:01.318Z,100931.03
2022-08-17T21:57:31.327Z,100928.81
2022-08-17T22:00:03.081Z,100927.19
2022-08-17T22:02:40.782Z,100929.19
2022-08-17T22:05:14.667Z,100926.00
2022-08-17T22:07:51.531Z,100921.19
2022-08-17T22:10:34.992Z,100909.19
2022-08-17T22:13:29.281Z,100895.19
2022-08-17T22:16:29.487Z,100896.97
2022-08-17T22:19:03.167Z,100889.34
2022-08-17T22:21:31.741Z,100881.50
2022-08-17T22:24:07.562Z,100878.63
2022-08-17T22:27:14.678Z,100874.72
2022-08-17T22:29:57.358Z,100868.63
2022-08-17T22:32:39.676Z,100874.84
2022-08-17T22:35:30.101Z,100880.41
2022-08-17T22:38:18.608Z,100882.03
2022-08-17T22:40:53.071Z,100857.91
2022-08-17T22:43:26.675Z,100836.16
2022-08-17T22:45:58.882Z,100841.19
2022-08-17T22:48:29.996Z,100842.38
2022-08-17T22:51:27.161Z,100872.50
2022-08-17T22:54:35.398Z,100855.94
2022-08-17T22:57:23.952Z,100840.97
2022-08-17T22:59:55.900Z,100855.59
2022-08-17T23:02:26.338Z,100861.50
2022-08-17T23:05:17.645Z,100859.81
2022-08-17T23:07:47.591Z,100866.38
2022-08-17T23:10:16.517Z,100869.28
2022-08-17T23:12:44.843Z,100872.00
2022-08-17T23:15:18.108Z,100857.28
2022-08-17T23:17:46.801Z,100845.88
2022-08-17T23:20:19.153Z,100830.66
2022-08-17T23:22:52.050Z,100836.47
2022-08-17T23:25:32.987Z,100845.13
2022-08-17T23:28:04.608Z,100864.47
2022-08-17T23:30:36.654Z,100852.28
2022-08-17T23:33:19.523Z,100858.38
2022-08-17T23:35:47.863Z,100857.94
2022-08-17T23:38:16.362Z,100855.78
2022-08-17T23:40:45.160Z,100864.19
2022-08-17T23:43:25.337Z,100872.84
2022-08-17T23:45:59.581Z,100870.59
2022-08-17T23:48:36.866Z,100861.09
2022-08-17T23:51:23.404Z,100860.78
2022-08-17T23:53:59.446Z,100865.94
2022-08-17T23:56:29.518Z,100854.16
2022-08-17T23:58:58.923Z,100844.91
